West Hempstead, New York
Current Conditions -  °F | °C
As of 10:51 AM on Thursday 29 Jan 2015 (Local Time) from KJFK Reporting Station
Broken Clouds Broken Clouds  
Wind Chill: 29°   Ceiling: 25000
Heat Index: 29°   Visibility: 10mi
Dew Point:   Wind: 0mph
Humidity: 38%   Direction: NA
Pressure: 30.33"   Gusts: NA
Location:  40.7°N, 73.65°W
Report Text: KJFK 291551Z 00000KT 10SM BKN250 M02/M14 A3033 RMK AO2 SLP269 T10171144 $
Loading
Personal Weather Stations






























Interactive Weather Map New forecast layout! Learn more

10-Day Weather Forecast

Advertisements
Track Severe Weather on mobile